Terminal Aerodrome Forecast
Issued by NWS Tampa Bay Area, FL

Home | Current Version | Previous Version | Text Only | Print | Product List | Glossary On
Versions: 1 2 3 4 5 6 7 8 9 10 11 12 13 14 15 16
000
FTUS42 KTBW 230543
TAFFMY
TAF
KFMY 230543Z 2306/2406 VRB03KT P6SM FEW250
     FM231400 07008KT P6SM SCT035 SCT250
     FM232100 11011KT P6SM VCTS BKN050CB BKN100
     FM240100 09008KT P6SM SCT050 SCT100 BKN250=

USA.gov is the U.S. government's official web portal to all federal, state and local government web resources and services.